sensor_id;sensor_type;location;lat;lon;timestamp;temperature;humidity
6824;DHT22;58633;49.470;11.004;2023-11-21T00:02:49;9.20;99.90
6824;DHT22;58633;49.470;11.004;2023-11-21T00:07:41;10.10;99.90
6824;DHT22;58633;49.470;11.004;2023-11-21T00:10:08;9.70;99.90
6824;DHT22;58633;49.470;11.004;2023-11-21T00:12:34;9.20;99.90
6824;DHT22;58633;49.470;11.004;2023-11-21T00:15:00;8.30;99.90
6824;DHT22;58633;49.470;11.004;2023-11-21T00:17:26;8.90;99.90
6824;DHT22;58633;49.470;11.004;2023-11-21T00:22:18;9.20;99.90
6824;DHT22;58633;49.470;11.004;2023-11-21T00:27:10;9.90;99.90
6824;DHT22;58633;49.470;11.004;2023-11-21T00:32:02;9.20;99.90
6824;DHT22;58633;49.470;11.004;2023-11-21T00:36:53;9.50;99.90
6824;DHT22;58633;49.470;11.004;2023-11-21T00:39:19;9.10;99.90
6824;DHT22;58633;49.470;11.004;2023-11-21T00:44:11;9.70;99.90
6824;DHT22;58633;49.470;11.004;2023-11-21T00:46:36;9.20;99.90
6824;DHT22;58633;49.470;11.004;2023-11-21T00:49:03;9.20;99.90
6824;DHT22;58633;49.470;11.004;2023-11-21T00:51:30;9.30;99.90
6824;DHT22;58633;49.470;11.004;2023-11-21T00:53:55;9.20;99.90
6824;DHT22;58633;49.470;11.004;2023-11-21T01:01:15;9.00;99.90
6824;DHT22;58633;49.470;11.004;2023-11-21T01:06:07;9.10;99.90
6824;DHT22;58633;49.470;11.004;2023-11-21T01:08:34;9.20;99.90
6824;DHT22;58633;49.470;11.004;2023-11-21T01:13:25;9.30;99.90
6824;DHT22;58633;49.470;11.004;2023-11-21T01:15:55;9.30;99.90
6824;DHT22;58633;49.470;11.004;2023-11-21T01:18:21;8.80;99.90
6824;DHT22;58633;49.470;11.004;2023-11-21T01:20:46;9.30;99.90
6824;DHT22;58633;49.470;11.004;2023-11-21T01:23:13;9.10;99.90
6824;DHT22;58633;49.470;11.004;2023-11-21T01:28:04;9.10;99.90
6824;DHT22;58633;49.470;11.004;2023-11-21T01:32:58;9.00;99.90
6824;DHT22;58633;49.470;11.004;2023-11-21T01:35:23;9.20;99.90
6824;DHT22;58633;49.470;11.004;2023-11-21T01:37:49;8.70;99.90
6824;DHT22;58633;49.470;11.004;2023-11-21T01:40:14;9.70;99.90
6824;DHT22;58633;49.470;11.004;2023-11-21T01:42:41;9.20;99.90
6824;DHT22;58633;49.470;11.004;2023-11-21T01:47:35;9.20;99.90
6824;DHT22;58633;49.470;11.004;2023-11-21T01:50:02;9.00;99.90
6824;DHT22;58633;49.470;11.004;2023-11-21T01:52:30;9.50;99.90
6824;DHT22;58633;49.470;11.004;2023-11-21T01:54:55;9.00;99.90
6824;DHT22;58633;49.470;11.004;2023-11-21T01:57:21;9.30;99.90
6824;DHT22;58633;49.470;11.004;2023-11-21T01:59:48;8.60;99.90
6824;DHT22;58633;49.470;11.004;2023-11-21T02:02:14;9.90;99.90
6824;DHT22;58633;49.470;11.004;2023-11-21T02:09:33;8.30;99.90
6824;DHT22;58633;49.470;11.004;2023-11-21T02:12:00;9.60;99.90
6824;DHT22;58633;49.470;11.004;2023-11-21T02:14:26;8.40;99.90
6824;DHT22;58633;49.470;11.004;2023-11-21T02:16:54;9.50;99.90
6824;DHT22;58633;49.470;11.004;2023-11-21T02:19:21;9.10;99.90
6824;DHT22;58633;49.470;11.004;2023-11-21T02:21:50;8.90;99.90
6824;DHT22;58633;49.470;11.004;2023-11-21T02:24:23;9.00;99.90
6824;DHT22;58633;49.470;11.004;2023-11-21T02:26:49;8.40;99.90
6824;DHT22;58633;49.470;11.004;2023-11-21T02:29:17;9.00;99.90
6824;DHT22;58633;49.470;11.004;2023-11-21T02:31:45;9.10;99.90
6824;DHT22;58633;49.470;11.004;2023-11-21T02:34:17;8.80;99.90
6824;DHT22;58633;49.470;11.004;2023-11-21T02:36:44;9.10;99.90
6824;DHT22;58633;49.470;11.004;2023-11-21T02:39:10;8.80;99.90
6824;DHT22;58633;49.470;11.004;2023-11-21T02:41:37;8.40;99.90
6824;DHT22;58633;49.470;11.004;2023-11-21T02:46:32;9.30;99.90
6824;DHT22;58633;49.470;11.004;2023-11-21T02:48:59;9.10;99.90
6824;DHT22;58633;49.470;11.004;2023-11-21T02:51:25;9.00;99.90
6824;DHT22;58633;49.470;11.004;2023-11-21T02:53:50;8.90;99.90
6824;DHT22;58633;49.470;11.004;2023-11-21T02:58:42;8.80;99.90
6824;DHT22;58633;49.470;11.004;2023-11-21T03:01:09;8.70;99.90
6824;DHT22;58633;49.470;11.004;2023-11-21T03:03:36;9.20;99.90
6824;DHT22;58633;49.470;11.004;2023-11-21T03:06:04;9.00;99.90
6824;DHT22;58633;49.470;11.004;2023-11-21T03:13:22;9.10;99.90
6824;DHT22;58633;49.470;11.004;2023-11-21T03:15:47;8.70;99.90
6824;DHT22;58633;49.470;11.004;2023-11-21T03:20:39;8.90;99.90
6824;DHT22;58633;49.470;11.004;2023-11-21T03:27:56;8.70;99.90
6824;DHT22;58633;49.470;11.004;2023-11-21T03:32:48;9.20;99.90
6824;DHT22;58633;49.470;11.004;2023-11-21T03:35:14;9.00;99.90
6824;DHT22;58633;49.470;11.004;2023-11-21T03:37:39;9.60;99.90
6824;DHT22;58633;49.470;11.004;2023-11-21T03:40:07;8.50;99.90
6824;DHT22;58633;49.470;11.004;2023-11-21T03:42:34;8.90;99.90
6824;DHT22;58633;49.470;11.004;2023-11-21T03:47:29;8.90;99.90
6824;DHT22;58633;49.470;11.004;2023-11-21T03:49:54;8.60;99.90
6824;DHT22;58633;49.470;11.004;2023-11-21T03:52:20;9.60;99.90
6824;DHT22;58633;49.470;11.004;2023-11-21T03:54:45;8.40;99.90
6824;DHT22;58633;49.470;11.004;2023-11-21T03:57:12;8.90;99.90
6824;DHT22;58633;49.470;11.004;2023-11-21T03:59:40;9.40;99.90
6824;DHT22;58633;49.470;11.004;2023-11-21T04:04:33;9.80;99.90
6824;DHT22;58633;49.470;11.004;2023-11-21T04:06:59;8.50;99.90
6824;DHT22;58633;49.470;11.004;2023-11-21T04:11:51;8.90;99.90
6824;DHT22;58633;49.470;11.004;2023-11-21T05:20:08;9.70;99.90
6824;DHT22;58633;49.470;11.004;2023-11-21T05:22:35;8.90;99.90
6824;DHT22;58633;49.470;11.004;2023-11-21T05:27:28;8.90;99.90
6824;DHT22;58633;49.470;11.004;2023-11-21T05:37:11;9.60;99.90
6824;DHT22;58633;49.470;11.004;2023-11-21T05:44:29;9.70;99.90
6824;DHT22;58633;49.470;11.004;2023-11-21T06:01:32;8.60;99.90
6824;DHT22;58633;49.470;11.004;2023-11-21T06:06:24;8.20;99.90
6824;DHT22;58633;49.470;11.004;2023-11-21T06:11:16;9.60;99.90
6824;DHT22;58633;49.470;11.004;2023-11-21T06:13:41;9.00;99.90
6824;DHT22;58633;49.470;11.004;2023-11-21T06:18:33;9.30;99.90
6824;DHT22;58633;49.470;11.004;2023-11-21T06:21:00;9.60;99.90
6824;DHT22;58633;49.470;11.004;2023-11-21T06:28:18;10.10;99.90
6824;DHT22;58633;49.470;11.004;2023-11-21T06:33:14;8.80;99.90
6824;DHT22;58633;49.470;11.004;2023-11-21T06:42:59;8.10;99.90
6824;DHT22;58633;49.470;11.004;2023-11-21T06:45:26;9.10;99.90
6824;DHT22;58633;49.470;11.004;2023-11-21T06:55:09;9.30;99.90
6824;DHT22;58633;49.470;11.004;2023-11-21T07:02:27;8.90;99.90
6824;DHT22;58633;49.470;11.004;2023-11-21T07:04:54;9.00;99.90
6824;DHT22;58633;49.470;11.004;2023-11-21T07:12:11;9.30;99.90
6824;DHT22;58633;49.470;11.004;2023-11-21T07:41:27;9.60;99.90
6824;DHT22;58633;49.470;11.004;2023-11-21T07:43:54;9.90;99.90
6824;DHT22;58633;49.470;11.004;2023-11-21T07:46:21;8.40;99.90
6824;DHT22;58633;49.470;11.004;2023-11-21T07:51:13;10.40;99.90
6824;DHT22;58633;49.470;11.004;2023-11-21T07:56:06;9.40;99.90
6824;DHT22;58633;49.470;11.004;2023-11-21T08:01:00;9.40;99.90
6824;DHT22;58633;49.470;11.004;2023-11-21T08:08:18;9.50;99.90
6824;DHT22;58633;49.470;11.004;2023-11-21T08:10:47;8.80;99.90
6824;DHT22;58633;49.470;11.004;2023-11-21T08:15:41;9.40;99.90
6824;DHT22;58633;49.470;11.004;2023-11-21T08:32:53;10.60;99.90
6824;DHT22;58633;49.470;11.004;2023-11-21T08:35:19;9.10;99.90
6824;DHT22;58633;49.470;11.004;2023-11-21T08:42:41;9.60;99.90
6824;DHT22;58633;49.470;11.004;2023-11-21T08:47:34;10.40;99.90
6824;DHT22;58633;49.470;11.004;2023-11-21T08:52:27;9.60;99.90
6824;DHT22;58633;49.470;11.004;2023-11-21T08:59:50;11.00;99.90
6824;DHT22;58633;49.470;11.004;2023-11-21T09:04:48;9.40;99.90
6824;DHT22;58633;49.470;11.004;2023-11-21T09:09:40;10.40;99.90
6824;DHT22;58633;49.470;11.004;2023-11-21T09:12:06;11.00;99.90
6824;DHT22;58633;49.470;11.004;2023-11-21T09:21:50;10.20;99.90
6824;DHT22;58633;49.470;11.004;2023-11-21T09:31:33;11.30;99.90
6824;DHT22;58633;49.470;11.004;2023-11-21T09:38:53;10.40;99.10
6824;DHT22;58633;49.470;11.004;2023-11-21T09:41:33;10.80;94.70
6824;DHT22;58633;49.470;11.004;2023-11-21T09:44:02;10.90;94.60
6824;DHT22;58633;49.470;11.004;2023-11-21T09:46:33;10.90;94.30
6824;DHT22;58633;49.470;11.004;2023-11-21T09:49:00;11.40;98.50
6824;DHT22;58633;49.470;11.004;2023-11-21T09:51:30;11.00;98.00
6824;DHT22;58633;49.470;11.004;2023-11-21T09:53:59;11.00;94.00
6824;DHT22;58633;49.470;11.004;2023-11-21T09:56:26;11.20;97.50
6824;DHT22;58633;49.470;11.004;2023-11-21T09:58:53;10.50;97.60
6824;DHT22;58633;49.470;11.004;2023-11-21T10:01:20;11.90;98.70
6824;DHT22;58633;49.470;11.004;2023-11-21T10:03:47;11.40;98.00
6824;DHT22;58633;49.470;11.004;2023-11-21T10:06:13;11.00;93.20
6824;DHT22;58633;49.470;11.004;2023-11-21T10:08:40;10.50;97.10
6824;DHT22;58633;49.470;11.004;2023-11-21T10:11:07;10.80;95.90
6824;DHT22;58633;49.470;11.004;2023-11-21T10:13:34;11.00;93.20
6824;DHT22;58633;49.470;11.004;2023-11-21T10:16:00;11.40;93.40
6824;DHT22;58633;49.470;11.004;2023-11-21T10:23:26;11.80;96.30
6824;DHT22;58633;49.470;11.004;2023-11-21T10:35:48;11.60;90.50
6824;DHT22;58633;49.470;11.004;2023-11-21T10:38:20;12.10;94.30
6824;DHT22;58633;49.470;11.004;2023-11-21T10:40:49;11.40;93.40
6824;DHT22;58633;49.470;11.004;2023-11-21T10:43:15;11.80;93.60
6824;DHT22;58633;49.470;11.004;2023-11-21T10:48:09;12.80;93.80
6824;DHT22;58633;49.470;11.004;2023-11-21T10:50:36;12.60;92.50
6824;DHT22;58633;49.470;11.004;2023-11-21T10:58:01;12.20;82.70
6824;DHT22;58633;49.470;11.004;2023-11-21T11:00:29;13.30;90.60
6824;DHT22;58633;49.470;11.004;2023-11-21T11:02:55;12.80;90.50
6824;DHT22;58633;49.470;11.004;2023-11-21T11:05:22;12.20;81.30
6824;DHT22;58633;49.470;11.004;2023-11-21T11:07:51;12.30;80.90
6824;DHT22;58633;49.470;11.004;2023-11-21T11:10:21;12.30;80.40
6824;DHT22;58633;49.470;11.004;2023-11-21T11:15:16;12.10;79.50
6824;DHT22;58633;49.470;11.004;2023-11-21T11:17:42;13.00;90.50
6824;DHT22;58633;49.470;11.004;2023-11-21T11:36:28;11.70;81.20
6824;DHT22;58633;49.470;11.004;2023-11-21T11:38:54;11.70;81.10
6824;DHT22;58633;49.470;11.004;2023-11-21T11:41:30;11.70;81.60
6824;DHT22;58633;49.470;11.004;2023-11-21T11:43:58;11.70;81.70
6824;DHT22;58633;49.470;11.004;2023-11-21T11:46:44;11.60;81.60
6824;DHT22;58633;49.470;11.004;2023-11-21T11:49:29;11.60;81.40
6824;DHT22;58633;49.470;11.004;2023-11-21T11:55:00;11.60;81.70
6824;DHT22;58633;49.470;11.004;2023-11-21T11:57:26;11.70;81.80
6824;DHT22;58633;49.470;11.004;2023-11-21T12:00:10;12.00;81.70
6824;DHT22;58633;49.470;11.004;2023-11-21T12:02:50;11.60;81.90
6824;DHT22;58633;49.470;11.004;2023-11-21T12:05:18;11.80;82.20
6824;DHT22;58633;49.470;11.004;2023-11-21T12:07:49;11.70;82.40
6824;DHT22;58633;49.470;11.004;2023-11-21T12:10:17;11.70;81.50
6824;DHT22;58633;49.470;11.004;2023-11-21T12:12:47;11.60;81.40
6824;DHT22;58633;49.470;11.004;2023-11-21T12:15:13;11.70;81.40
6824;DHT22;58633;49.470;11.004;2023-11-21T12:17:41;11.70;80.90
6824;DHT22;58633;49.470;11.004;2023-11-21T12:20:07;11.60;81.30
6824;DHT22;58633;49.470;11.004;2023-11-21T12:22:42;11.70;81.50
6824;DHT22;58633;49.470;11.004;2023-11-21T12:25:08;11.70;81.80
6824;DHT22;58633;49.470;11.004;2023-11-21T12:27:33;11.90;82.20
6824;DHT22;58633;49.470;11.004;2023-11-21T12:29:59;11.90;81.50
6824;DHT22;58633;49.470;11.004;2023-11-21T12:32:24;12.10;80.90
6824;DHT22;58633;49.470;11.004;2023-11-21T12:34:51;12.10;79.80
6824;DHT22;58633;49.470;11.004;2023-11-21T12:37:16;11.90;79.10
6824;DHT22;58633;49.470;11.004;2023-11-21T12:39:42;12.10;79.30
6824;DHT22;58633;49.470;11.004;2023-11-21T12:42:08;12.00;79.20
6824;DHT22;58633;49.470;11.004;2023-11-21T12:44:34;12.00;79.10
6824;DHT22;58633;49.470;11.004;2023-11-21T12:46:59;12.00;79.10
6824;DHT22;58633;49.470;11.004;2023-11-21T12:49:25;11.90;78.70
6824;DHT22;58633;49.470;11.004;2023-11-21T12:51:50;11.90;78.60
6824;DHT22;58633;49.470;11.004;2023-11-21T12:54:16;11.90;78.50
6824;DHT22;58633;49.470;11.004;2023-11-21T12:56:45;12.10;78.60
6824;DHT22;58633;49.470;11.004;2023-11-21T12:59:12;12.00;78.30
6824;DHT22;58633;49.470;11.004;2023-11-21T13:01:42;11.90;78.00
6824;DHT22;58633;49.470;11.004;2023-11-21T13:04:08;11.90;78.00
6824;DHT22;58633;49.470;11.004;2023-11-21T13:06:36;11.90;78.00
6824;DHT22;58633;49.470;11.004;2023-11-21T13:09:09;12.00;77.90
6824;DHT22;58633;49.470;11.004;2023-11-21T13:11:41;11.80;78.20
6824;DHT22;58633;49.470;11.004;2023-11-21T13:14:07;11.80;78.40
6824;DHT22;58633;49.470;11.004;2023-11-21T13:16:32;11.90;78.60
6824;DHT22;58633;49.470;11.004;2023-11-21T13:18:58;11.60;77.60
6824;DHT22;58633;49.470;11.004;2023-11-21T13:21:24;11.90;78.30
6824;DHT22;58633;49.470;11.004;2023-11-21T13:23:49;12.00;78.20
6824;DHT22;58633;49.470;11.004;2023-11-21T13:26:18;12.10;78.40
6824;DHT22;58633;49.470;11.004;2023-11-21T13:28:46;12.10;78.40
6824;DHT22;58633;49.470;11.004;2023-11-21T13:31:12;11.90;78.00
6824;DHT22;58633;49.470;11.004;2023-11-21T13:33:52;12.40;76.80
6824;DHT22;58633;49.470;11.004;2023-11-21T13:36:24;12.30;76.10
6824;DHT22;58633;49.470;11.004;2023-11-21T13:38:51;12.10;76.20
6824;DHT22;58633;49.470;11.004;2023-11-21T13:41:18;11.90;76.00
6824;DHT22;58633;49.470;11.004;2023-11-21T13:43:44;12.30;76.30
6824;DHT22;58633;49.470;11.004;2023-11-21T13:46:15;12.30;76.50
6824;DHT22;58633;49.470;11.004;2023-11-21T13:48:47;12.80;76.30
6824;DHT22;58633;49.470;11.004;2023-11-21T13:51:16;13.20;75.60
6824;DHT22;58633;49.470;11.004;2023-11-21T13:53:48;13.50;74.60
6824;DHT22;58633;49.470;11.004;2023-11-21T13:56:18;13.90;73.20
6824;DHT22;58633;49.470;11.004;2023-11-21T13:58:52;14.60;71.20
6824;DHT22;58633;49.470;11.004;2023-11-21T14:01:18;14.70;71.20
6824;DHT22;58633;49.470;11.004;2023-11-21T14:04:00;15.10;70.00
6824;DHT22;58633;49.470;11.004;2023-11-21T14:06:34;15.40;68.70
6824;DHT22;58633;49.470;11.004;2023-11-21T14:09:07;15.70;68.00
6824;DHT22;58633;49.470;11.004;2023-11-21T14:11:33;15.90;67.00
6824;DHT22;58633;49.470;11.004;2023-11-21T14:14:02;16.20;66.30
6824;DHT22;58633;49.470;11.004;2023-11-21T14:16:28;16.30;65.50
6824;DHT22;58633;49.470;11.004;2023-11-21T14:18:53;18.80;67.50
6824;DHT22;58633;49.470;11.004;2023-11-21T14:21:29;18.80;67.70
6824;DHT22;58633;49.470;11.004;2023-11-21T14:23:54;16.00;64.50
6824;DHT22;58633;49.470;11.004;2023-11-21T14:26:20;15.70;64.70
6824;DHT22;58633;49.470;11.004;2023-11-21T14:28:46;15.50;65.00
6824;DHT22;58633;49.470;11.004;2023-11-21T14:31:14;15.20;65.30
6824;DHT22;58633;49.470;11.004;2023-11-21T14:33:43;15.00;65.40
6824;DHT22;58633;49.470;11.004;2023-11-21T14:36:09;14.80;65.40
6824;DHT22;58633;49.470;11.004;2023-11-21T14:38:36;14.60;65.50
6824;DHT22;58633;49.470;11.004;2023-11-21T14:41:02;14.70;65.30
6824;DHT22;58633;49.470;11.004;2023-11-21T14:43:29;14.40;65.30
6824;DHT22;58633;49.470;11.004;2023-11-21T14:45:59;14.40;65.10
6824;DHT22;58633;49.470;11.004;2023-11-21T14:48:25;14.10;64.70
6824;DHT22;58633;49.470;11.004;2023-11-21T14:51:13;14.00;64.70
6824;DHT22;58633;49.470;11.004;2023-11-21T14:53:53;13.90;64.70
6824;DHT22;58633;49.470;11.004;2023-11-21T14:56:22;13.80;64.70
6824;DHT22;58633;49.470;11.004;2023-11-21T14:59:00;13.60;64.40
6824;DHT22;58633;49.470;11.004;2023-11-21T15:01:38;13.60;64.50
6824;DHT22;58633;49.470;11.004;2023-11-21T15:04:19;13.50;64.40
6824;DHT22;58633;49.470;11.004;2023-11-21T15:07:04;13.40;64.40
6824;DHT22;58633;49.470;11.004;2023-11-21T15:09:30;13.30;64.50
6824;DHT22;58633;49.470;11.004;2023-11-21T15:12:06;13.20;64.50
6824;DHT22;58633;49.470;11.004;2023-11-21T15:14:46;13.10;64.40
6824;DHT22;58633;49.470;11.004;2023-11-21T15:17:14;12.90;64.60
6824;DHT22;58633;49.470;11.004;2023-11-21T15:19:53;12.80;64.50
6824;DHT22;58633;49.470;11.004;2023-11-21T15:22:19;12.80;65.00
6824;DHT22;58633;49.470;11.004;2023-11-21T15:24:45;12.80;65.00
6824;DHT22;58633;49.470;11.004;2023-11-21T15:27:12;12.70;64.70
6824;DHT22;58633;49.470;11.004;2023-11-21T15:29:41;12.70;65.20
6824;DHT22;58633;49.470;11.004;2023-11-21T15:32:07;12.60;65.30
6824;DHT22;58633;49.470;11.004;2023-11-21T15:34:34;12.50;65.40
6824;DHT22;58633;49.470;11.004;2023-11-21T15:37:00;12.40;65.50
6824;DHT22;58633;49.470;11.004;2023-11-21T15:39:26;12.40;65.60
6824;DHT22;58633;49.470;11.004;2023-11-21T15:41:58;12.30;65.80
6824;DHT22;58633;49.470;11.004;2023-11-21T15:44:27;11.70;65.00
6824;DHT22;58633;49.470;11.004;2023-11-21T15:46:53;12.20;65.70
6824;DHT22;58633;49.470;11.004;2023-11-21T15:49:19;12.20;66.20
6824;DHT22;58633;49.470;11.004;2023-11-21T15:51:47;12.10;66.10
6824;DHT22;58633;49.470;11.004;2023-11-21T15:54:18;12.00;66.10
6824;DHT22;58633;49.470;11.004;2023-11-21T15:56:46;12.10;66.20
6824;DHT22;58633;49.470;11.004;2023-11-21T15:59:12;11.90;66.10
6824;DHT22;58633;49.470;11.004;2023-11-21T16:01:37;11.80;66.10
6824;DHT22;58633;49.470;11.004;2023-11-21T16:04:09;11.80;66.20
6824;DHT22;58633;49.470;11.004;2023-11-21T16:06:36;11.70;66.10
6824;DHT22;58633;49.470;11.004;2023-11-21T16:09:05;11.80;66.30
6824;DHT22;58633;49.470;11.004;2023-11-21T16:11:31;11.70;66.20
6824;DHT22;58633;49.470;11.004;2023-11-21T16:13:59;11.70;66.40
6824;DHT22;58633;49.470;11.004;2023-11-21T16:16:24;11.70;66.70
6824;DHT22;58633;49.470;11.004;2023-11-21T16:18:50;11.60;66.60
6824;DHT22;58633;49.470;11.004;2023-11-21T16:21:16;11.60;66.60
6824;DHT22;58633;49.470;11.004;2023-11-21T16:23:42;11.60;66.60
6824;DHT22;58633;49.470;11.004;2023-11-21T16:26:07;11.50;66.60
6824;DHT22;58633;49.470;11.004;2023-11-21T16:28:34;11.50;66.60
6824;DHT22;58633;49.470;11.004;2023-11-21T16:30:59;11.40;66.60
6824;DHT22;58633;49.470;11.004;2023-11-21T16:33:25;11.30;66.70
6824;DHT22;58633;49.470;11.004;2023-11-21T16:35:50;11.40;66.90
6824;DHT22;58633;49.470;11.004;2023-11-21T16:38:16;11.30;66.90
6824;DHT22;58633;49.470;11.004;2023-11-21T16:40:42;11.30;67.00
6824;DHT22;58633;49.470;11.004;2023-11-21T16:43:09;11.40;67.00
6824;DHT22;58633;49.470;11.004;2023-11-21T16:45:35;12.20;68.00
6824;DHT22;58633;49.470;11.004;2023-11-21T16:48:01;11.20;67.10
6824;DHT22;58633;49.470;11.004;2023-11-21T16:50:28;11.00;66.60
6824;DHT22;58633;49.470;11.004;2023-11-21T16:52:53;11.20;67.20
6824;DHT22;58633;49.470;11.004;2023-11-21T16:55:19;11.20;67.30
6824;DHT22;58633;49.470;11.004;2023-11-21T16:57:45;11.10;67.30
6824;DHT22;58633;49.470;11.004;2023-11-21T17:00:11;11.10;67.40
6824;DHT22;58633;49.470;11.004;2023-11-21T17:02:38;11.20;67.70
6824;DHT22;58633;49.470;11.004;2023-11-21T17:05:05;11.20;67.70
6824;DHT22;58633;49.470;11.004;2023-11-21T17:07:31;11.00;67.60
6824;DHT22;58633;49.470;11.004;2023-11-21T17:09:57;11.00;67.80
6824;DHT22;58633;49.470;11.004;2023-11-21T17:12:23;11.00;68.10
6824;DHT22;58633;49.470;11.004;2023-11-21T17:14:48;11.00;68.30
6824;DHT22;58633;49.470;11.004;2023-11-21T17:17:14;11.00;68.00
6824;DHT22;58633;49.470;11.004;2023-11-21T17:19:40;10.80;68.40
6824;DHT22;58633;49.470;11.004;2023-11-21T17:22:06;10.90;68.70
6824;DHT22;58633;49.470;11.004;2023-11-21T17:24:32;11.00;69.00
6824;DHT22;58633;49.470;11.004;2023-11-21T17:27:02;11.00;69.00
6824;DHT22;58633;49.470;11.004;2023-11-21T17:29:28;11.00;69.10
6824;DHT22;58633;49.470;11.004;2023-11-21T17:31:54;10.90;69.10
6824;DHT22;58633;49.470;11.004;2023-11-21T17:34:19;10.90;69.20
6824;DHT22;58633;49.470;11.004;2023-11-21T17:36:45;10.90;69.30
6824;DHT22;58633;49.470;11.004;2023-11-21T17:39:11;10.90;69.70
6824;DHT22;58633;49.470;11.004;2023-11-21T17:41:37;10.90;69.50
6824;DHT22;58633;49.470;11.004;2023-11-21T17:44:03;10.90;69.50
6824;DHT22;58633;49.470;11.004;2023-11-21T17:46:29;10.90;69.80
6824;DHT22;58633;49.470;11.004;2023-11-21T17:48:55;10.90;69.50
6824;DHT22;58633;49.470;11.004;2023-11-21T17:51:21;10.90;70.00
6824;DHT22;58633;49.470;11.004;2023-11-21T17:53:46;10.80;69.60
6824;DHT22;58633;49.470;11.004;2023-11-21T17:56:13;10.80;69.70
6824;DHT22;58633;49.470;11.004;2023-11-21T17:58:39;11.10;70.10
6824;DHT22;58633;49.470;11.004;2023-11-21T18:01:04;10.90;70.40
6824;DHT22;58633;49.470;11.004;2023-11-21T18:03:30;10.80;70.10
6824;DHT22;58633;49.470;11.004;2023-11-21T18:05:55;10.70;70.50
6824;DHT22;58633;49.470;11.004;2023-11-21T18:08:21;10.70;70.60
6824;DHT22;58633;49.470;11.004;2023-11-21T18:10:46;10.70;71.40
6824;DHT22;58633;49.470;11.004;2023-11-21T18:13:12;10.80;70.90
6824;DHT22;58633;49.470;11.004;2023-11-21T18:15:39;10.80;70.90
6824;DHT22;58633;49.470;11.004;2023-11-21T18:18:04;10.70;70.80
6824;DHT22;58633;49.470;11.004;2023-11-21T18:20:30;10.80;71.00
6824;DHT22;58633;49.470;11.004;2023-11-21T18:22:56;10.70;71.10
6824;DHT22;58633;49.470;11.004;2023-11-21T18:25:21;10.80;71.30
6824;DHT22;58633;49.470;11.004;2023-11-21T18:27:47;10.70;71.10
6824;DHT22;58633;49.470;11.004;2023-11-21T18:30:12;10.60;71.20
6824;DHT22;58633;49.470;11.004;2023-11-21T18:32:39;10.70;71.40
6824;DHT22;58633;49.470;11.004;2023-11-21T18:35:05;10.60;71.50
6824;DHT22;58633;49.470;11.004;2023-11-21T18:37:31;10.70;71.40
6824;DHT22;58633;49.470;11.004;2023-11-21T18:39:56;10.50;71.40
6824;DHT22;58633;49.470;11.004;2023-11-21T18:44:49;10.60;71.20
6824;DHT22;58633;49.470;11.004;2023-11-21T18:47:15;12.60;73.90
6824;DHT22;58633;49.470;11.004;2023-11-21T18:49:44;10.50;71.90
6824;DHT22;58633;49.470;11.004;2023-11-21T18:52:09;10.50;72.40
6824;DHT22;58633;49.470;11.004;2023-11-21T18:54:36;10.50;72.70
6824;DHT22;58633;49.470;11.004;2023-11-21T18:57:02;10.50;73.10
6824;DHT22;58633;49.470;11.004;2023-11-21T18:59:27;10.50;73.50
6824;DHT22;58633;49.470;11.004;2023-11-21T19:01:53;10.40;73.60
6824;DHT22;58633;49.470;11.004;2023-11-21T19:04:18;10.40;73.90
6824;DHT22;58633;49.470;11.004;2023-11-21T19:06:48;10.40;75.10
6824;DHT22;58633;49.470;11.004;2023-11-21T19:09:14;10.40;74.80
6824;DHT22;58633;49.470;11.004;2023-11-21T19:11:39;10.40;75.00
6824;DHT22;58633;49.470;11.004;2023-11-21T19:14:05;10.50;75.30
6824;DHT22;58633;49.470;11.004;2023-11-21T19:16:30;10.60;75.60
6824;DHT22;58633;49.470;11.004;2023-11-21T19:18:56;10.40;75.50
6824;DHT22;58633;49.470;11.004;2023-11-21T19:21:23;10.30;75.70
6824;DHT22;58633;49.470;11.004;2023-11-21T19:23:48;10.40;76.10
6824;DHT22;58633;49.470;11.004;2023-11-21T19:26:16;10.40;76.40
6824;DHT22;58633;49.470;11.004;2023-11-21T19:28:42;10.50;76.70
6824;DHT22;58633;49.470;11.004;2023-11-21T19:31:18;10.50;76.70
6824;DHT22;58633;49.470;11.004;2023-11-21T19:33:44;10.30;77.10
6824;DHT22;58633;49.470;11.004;2023-11-21T19:36:10;10.40;77.60
6824;DHT22;58633;49.470;11.004;2023-11-21T19:38:36;10.30;78.00
6824;DHT22;58633;49.470;11.004;2023-11-21T19:41:02;10.40;79.20
6824;DHT22;58633;49.470;11.004;2023-11-21T19:43:28;10.50;79.00
6824;DHT22;58633;49.470;11.004;2023-11-21T19:45:54;10.40;79.60
6824;DHT22;58633;49.470;11.004;2023-11-21T19:48:21;10.40;80.10
6824;DHT22;58633;49.470;11.004;2023-11-21T19:50:49;10.40;80.60
6824;DHT22;58633;49.470;11.004;2023-11-21T19:53:15;10.40;80.90
6824;DHT22;58633;49.470;11.004;2023-11-21T19:55:40;10.30;81.20
6824;DHT22;58633;49.470;11.004;2023-11-21T19:58:06;10.40;81.70
6824;DHT22;58633;49.470;11.004;2023-11-21T20:00:33;10.30;81.80
6824;DHT22;58633;49.470;11.004;2023-11-21T20:02:58;10.20;82.30
6824;DHT22;58633;49.470;11.004;2023-11-21T20:05:24;10.40;83.10
6824;DHT22;58633;49.470;11.004;2023-11-21T20:07:49;12.50;84.20
6824;DHT22;58633;49.470;11.004;2023-11-21T20:10:15;10.20;80.50
6824;DHT22;58633;49.470;11.004;2023-11-21T20:12:43;10.10;80.50
6824;DHT22;58633;49.470;11.004;2023-11-21T20:15:09;9.90;80.20
6824;DHT22;58633;49.470;11.004;2023-11-21T20:17:35;9.80;80.20
6824;DHT22;58633;49.470;11.004;2023-11-21T20:20:02;9.80;79.90
6824;DHT22;58633;49.470;11.004;2023-11-21T20:22:29;9.80;80.10
6824;DHT22;58633;49.470;11.004;2023-11-21T20:24:55;9.80;79.90
6824;DHT22;58633;49.470;11.004;2023-11-21T20:27:22;9.60;78.40
6824;DHT22;58633;49.470;11.004;2023-11-21T20:29:48;9.70;78.90
6824;DHT22;58633;49.470;11.004;2023-11-21T20:32:13;9.50;78.00
6824;DHT22;58633;49.470;11.004;2023-11-21T20:34:39;9.60;78.50
6824;DHT22;58633;49.470;11.004;2023-11-21T20:37:05;9.40;77.00
6824;DHT22;58633;49.470;11.004;2023-11-21T20:39:31;9.30;76.80
6824;DHT22;58633;49.470;11.004;2023-11-21T20:41:59;9.50;77.40
6824;DHT22;58633;49.470;11.004;2023-11-21T20:44:25;9.40;77.40
6824;DHT22;58633;49.470;11.004;2023-11-21T20:46:50;9.20;76.60
6824;DHT22;58633;49.470;11.004;2023-11-21T20:51:44;9.20;76.50
6824;DHT22;58633;49.470;11.004;2023-11-21T20:54:10;9.40;76.50
6824;DHT22;58633;49.470;11.004;2023-11-21T20:56:36;9.30;76.90
6824;DHT22;58633;49.470;11.004;2023-11-21T20:59:02;9.30;76.90
6824;DHT22;58633;49.470;11.004;2023-11-21T21:01:35;9.50;78.10
6824;DHT22;58633;49.470;11.004;2023-11-21T21:04:01;9.60;77.60
6824;DHT22;58633;49.470;11.004;2023-11-21T21:06:30;9.60;75.80
6824;DHT22;58633;49.470;11.004;2023-11-21T21:08:56;9.90;75.30
6824;DHT22;58633;49.470;11.004;2023-11-21T21:11:25;10.00;73.90
6824;DHT22;58633;49.470;11.004;2023-11-21T21:13:51;9.90;74.00
6824;DHT22;58633;49.470;11.004;2023-11-21T21:16:21;11.40;74.90
6824;DHT22;58633;49.470;11.004;2023-11-21T21:18:55;9.70;74.00